Time;durP1;ratioP1;P1;durP2;ratioP2;P2;SDS_P1;SDS_P2;PMS_P1;PMS_P2;Temp;Humidity;BMP_temperature;BMP_pressure;BME280_temperature;BME280_humidity;BME280_pressure;Samples;Min_cycle;Max_cycle;Signal;HPM_P1;HPM_P2
2023/04/22 00:01:23;;;;;;;8.03;7.20;;;11.70;99.90;;;;;;5098568;28;20040;-60
2023/04/22 00:03:49;;;;;;;8.88;7.65;;;11.70;99.90;;;;;;5096024;28;20313;-60
2023/04/22 00:06:15;;;;;;;;;;;11.70;99.90;;;;;;5099846;28;20109;-60
2023/04/22 00:08:41;;;;;;;6.85;6.13;;;11.60;99.90;;;;;;5097622;28;19919;-60
2023/04/22 00:11:06;;;;;;;6.45;5.75;;;11.60;99.90;;;;;;5096140;28;20039;-60
2023/04/22 00:13:32;;;;;;;7.32;6.68;;;11.50;99.90;;;;;;5096586;28;20063;-60
2023/04/22 00:15:58;;;;;;;9.77;8.32;;;11.40;99.90;;;;;;5099695;28;20451;-60
2023/04/22 00:18:23;;;;;;;9.63;8.68;;;11.50;99.90;;;;;;5096265;28;20054;-60
2023/04/22 00:20:49;;;;;;;10.07;8.90;;;11.40;99.90;;;;;;5098381;28;20027;-60
2023/04/22 00:23:14;;;;;;;11.50;8.83;;;11.30;99.90;;;;;;5096304;28;20285;-59
2023/04/22 00:25:40;;;;;;;7.57;6.88;;;11.30;99.90;;;;;;5096795;28;20047;-59
2023/04/22 00:28:06;;;;;;;5.30;4.85;;;11.20;99.90;;;;;;5098658;28;20046;-60
2023/04/22 00:30:31;;;;;;;9.50;8.43;;;11.20;99.90;;;;;;5096530;28;20032;-60
2023/04/22 00:32:57;;;;;;;8.55;7.53;;;11.20;99.90;;;;;;5100723;28;20443;-59
2023/04/22 00:35:23;;;;;;;6.70;5.97;;;11.20;99.90;;;;;;5100701;28;20443;-59
2023/04/22 00:37:48;;;;;;;5.18;4.78;;;11.20;99.90;;;;;;5097259;28;20329;-60
2023/04/22 00:40:14;;;;;;;5.90;5.35;;;11.10;99.90;;;;;;5097275;28;20036;-59
2023/04/22 00:42:42;;;;;;;8.80;7.95;;;11.10;99.90;;;;;;5097891;28;20496;-59
2023/04/22 00:45:14;;;;;;;11.35;9.25;;;11.00;99.90;;;;;;5097716;28;20036;-60
2023/04/22 00:47:40;;;;;;;5.38;4.97;;;11.00;99.90;;;;;;5095403;28;20667;-60
2023/04/22 00:50:06;;;;;;;;;;;10.90;99.90;;;;;;5097920;28;20088;-60
2023/04/22 00:52:32;;;;;;;6.50;5.90;;;10.90;99.90;;;;;;5099554;28;19915;-59
2023/04/22 00:54:58;;;;;;;5.30;4.78;;;10.80;99.90;;;;;;5103591;28;20046;-60
2023/04/22 00:57:23;;;;;;;3.78;3.47;;;10.70;99.90;;;;;;5102174;28;20073;-62
2023/04/22 00:59:50;;;;;;;4.35;3.22;;;10.60;99.90;;;;;;5099957;28;20093;-59
2023/04/22 01:02:16;;;;;;;7.22;3.60;;;10.50;99.90;;;;;;5099762;28;20051;-59
2023/04/22 01:04:42;;;;;;;21.80;2.92;;;10.40;99.90;;;;;;5098642;28;20031;-60
2023/04/22 01:07:07;;;;;;;1.60;1.50;;;10.30;99.90;;;;;;5100673;28;20042;-59
2023/04/22 01:09:34;;;;;;;3.47;3.20;;;10.20;99.90;;;;;;5100029;28;20437;-59
2023/04/22 01:12:01;;;;;;;6.55;3.85;;;10.20;99.90;;;;;;5102384;28;20134;-60
2023/04/22 01:14:27;;;;;;;3.03;2.83;;;10.20;99.90;;;;;;5101272;28;20082;-59
2023/04/22 01:16:54;;;;;;;3.85;3.60;;;10.20;99.90;;;;;;5099940;28;20040;-59
2023/04/22 01:19:20;;;;;;;4.00;3.70;;;10.10;99.90;;;;;;5099884;27;20050;-59
2023/04/22 01:21:47;;;;;;;4.03;3.73;;;10.10;99.90;;;;;;5103286;28;20472;-60
2023/04/22 01:24:13;;;;;;;4.65;4.35;;;10.10;99.90;;;;;;5101593;28;20883;-60
2023/04/22 01:26:38;;;;;;;3.80;3.50;;;10.10;99.90;;;;;;5101655;28;20039;-59
2023/04/22 01:29:04;;;;;;;4.65;4.35;;;10.00;99.90;;;;;;5098856;28;20412;-60
2023/04/22 01:31:30;;;;;;;3.33;3.13;;;10.00;99.90;;;;;;5100785;28;20088;-60
2023/04/22 01:33:57;;;;;;;3.75;3.42;;;10.00;99.90;;;;;;5102390;28;20369;-59
2023/04/22 01:36:23;;;;;;;4.25;3.95;;;9.90;99.90;;;;;;5100212;28;20587;-60
2023/04/22 01:38:48;;;;;;;3.30;3.10;;;9.80;99.90;;;;;;5099575;28;20201;-60
2023/04/22 01:41:14;;;;;;;3.00;2.80;;;9.90;99.90;;;;;;5098505;28;20497;-60
2023/04/22 01:43:41;;;;;;;2.05;1.85;;;9.80;99.90;;;;;;5102906;28;20466;-60
2023/04/22 01:46:08;;;;;;;1.85;1.73;;;9.80;99.90;;;;;;5100813;28;20409;-59
2023/04/22 01:48:34;;;;;;;2.28;2.08;;;9.80;99.90;;;;;;5098530;28;20044;-60
2023/04/22 01:51:00;;;;;;;3.22;3.03;;;9.80;99.90;;;;;;5101796;28;20516;-60
2023/04/22 01:53:26;;;;;;;5.03;4.60;;;9.80;99.90;;;;;;5098708;28;20076;-60
2023/04/22 01:55:52;;;;;;;4.40;4.10;;;9.80;99.90;;;;;;5100552;28;20069;-59
2023/04/22 01:58:17;;;;;;;5.00;4.60;;;9.80;99.90;;;;;;5100509;28;20459;-59
2023/04/22 02:00:44;;;;;;;2.60;2.40;;;9.80;99.90;;;;;;5099032;28;20370;-59
2023/04/22 02:03:10;;;;;;;1.90;1.70;;;9.80;99.90;;;;;;5096037;28;20060;-60
2023/04/22 02:05:37;;;;;;;2.20;1.90;;;9.70;99.90;;;;;;5100264;28;20036;-60
2023/04/22 02:08:03;;;;;;;2.50;2.35;;;9.60;99.90;;;;;;5100390;28;20047;-60
2023/04/22 02:10:29;;;;;;;3.78;3.47;;;9.60;99.90;;;;;;5097758;28;20047;-60
2023/04/22 02:12:55;;;;;;;4.07;3.78;;;9.50;99.90;;;;;;5103296;28;21535;-60
2023/04/22 02:15:21;;;;;;;2.08;1.98;;;9.50;99.90;;;;;;5098797;28;20453;-60
2023/04/22 02:17:48;;;;;;;3.10;2.90;;;9.50;99.90;;;;;;5096586;28;20051;-60
2023/04/22 02:20:13;;;;;;;;;;;9.50;99.90;;;;;;5101888;28;20044;-59
2023/04/22 02:22:40;;;;;;;6.22;5.63;;;9.50;99.90;;;;;;5101548;28;20409;-60
2023/04/22 02:25:07;;;;;;;9.10;8.20;;;9.50;99.90;;;;;;5100729;28;20062;-60
2023/04/22 02:27:32;;;;;;;;;;;9.50;99.90;;;;;;5098613;28;20039;-60
2023/04/22 02:29:58;;;;;;;5.85;4.97;;;9.50;99.90;;;;;;5097483;28;20023;-59
2023/04/22 02:32:24;;;;;;;5.45;4.25;;;9.50;99.90;;;;;;5099549;28;20448;-60
2023/04/22 02:34:49;;;;;;;6.20;5.70;;;9.40;99.90;;;;;;5098775;28;20136;-59
2023/04/22 02:37:15;;;;;;;5.97;5.47;;;9.30;99.90;;;;;;5100455;28;20289;-59
2023/04/22 02:39:41;;;;;;;9.20;8.23;;;9.30;99.90;;;;;;5098701;28;20031;-59
2023/04/22 02:42:06;;;;;;;8.35;7.13;;;9.30;99.90;;;;;;5098683;28;20039;-60
2023/04/22 02:44:32;;;;;;;7.77;7.07;;;9.30;99.90;;;;;;5100642;28;20306;-60
2023/04/22 02:46:57;;;;;;;9.57;8.57;;;9.30;99.90;;;;;;5097441;28;20301;-59
2023/04/22 02:49:23;;;;;;;97.67;12.57;;;9.30;99.90;;;;;;5096652;28;20290;-60
2023/04/22 02:51:49;;;;;;;5.47;4.97;;;9.20;99.90;;;;;;5097665;28;20110;-59
2023/04/22 02:54:15;;;;;;;2.58;2.38;;;9.20;99.90;;;;;;5101179;28;20853;-59
2023/04/22 02:56:40;;;;;;;2.93;2.73;;;9.10;99.90;;;;;;5099029;28;20122;-59
2023/04/22 02:59:06;;;;;;;3.40;3.10;;;9.10;99.90;;;;;;5096061;28;20058;-60
2023/04/22 03:01:31;;;;;;;3.13;2.92;;;9.00;99.90;;;;;;5101182;28;20044;-60
2023/04/22 03:03:57;;;;;;;4.38;2.85;;;9.00;99.90;;;;;;5098799;28;20085;-59
2023/04/22 03:06:23;;;;;;;3.90;3.10;;;9.00;99.90;;;;;;5100082;28;20039;-59
2023/04/22 03:08:48;;;;;;;2.13;2.00;;;9.00;99.90;;;;;;5096726;28;20082;-60
2023/04/22 03:11:14;;;;;;;2.07;1.97;;;9.00;99.90;;;;;;5098252;28;20465;-60
2023/04/22 03:13:40;;;;;;;1.52;1.42;;;9.00;99.90;;;;;;5097099;28;20745;-59
2023/04/22 03:16:06;;;;;;;1.33;1.00;;;8.90;99.90;;;;;;5099681;28;20082;-60
2023/04/22 03:18:31;;;;;;;1.20;1.10;;;8.90;99.90;;;;;;5096509;28;20047;-59
2023/04/22 03:20:57;;;;;;;1.27;1.17;;;8.90;99.90;;;;;;5101586;28;20028;-60
2023/04/22 03:23:23;;;;;;;1.10;1.05;;;8.90;99.90;;;;;;5096905;28;20331;-60
2023/04/22 03:25:48;;;;;;;1.20;1.10;;;8.90;99.90;;;;;;5098523;28;20035;-60
2023/04/22 03:28:14;;;;;;;9.07;2.07;;;8.90;99.90;;;;;;5097660;28;20118;-59
2023/04/22 03:30:39;;;;;;;3.83;2.27;;;8.90;99.90;;;;;;5095994;28;20032;-60
2023/04/22 03:33:05;;;;;;;1.53;1.43;;;8.90;99.90;;;;;;5099361;28;20296;-60
2023/04/22 03:35:30;;;;;;;1.63;1.53;;;8.90;99.90;;;;;;5099146;28;20396;-60
2023/04/22 03:37:56;;;;;;;9.07;2.30;;;8.90;99.90;;;;;;5098242;28;20093;-60
2023/04/22 03:40:22;;;;;;;7.57;2.33;;;8.80;99.90;;;;;;5095282;28;20285;-60
2023/04/22 03:42:47;;;;;;;2.13;2.03;;;8.80;99.90;;;;;;5099799;28;20046;-59
2023/04/22 03:45:13;;;;;;;14.97;3.80;;;8.70;99.90;;;;;;5097996;28;20409;-60
2023/04/22 03:47:38;;;;;;;2.77;2.57;;;8.70;99.90;;;;;;5098236;28;20076;-59
2023/04/22 03:50:04;;;;;;;2.77;2.57;;;8.60;99.90;;;;;;5096719;28;20408;-60
2023/04/22 03:52:30;;;;;;;2.90;1.42;;;8.50;99.90;;;;;;5099021;28;20116;-60
2023/04/22 03:54:55;;;;;;;1.97;1.87;;;8.40;99.90;;;;;;5097223;28;20089;-60
2023/04/22 03:57:21;;;;;;;1.70;1.43;;;8.30;99.90;;;;;;5098982;28;20046;-59
2023/04/22 03:59:47;;;;;;;8.63;2.13;;;8.20;99.90;;;;;;5096943;28;20274;-60
2023/04/22 04:02:12;;;;;;;3.33;3.03;;;8.20;99.90;;;;;;5097629;28;20077;-59
2023/04/22 04:04:38;;;;;;;31.73;4.93;;;8.10;99.90;;;;;;5097964;28;20039;-60
2023/04/22 04:07:03;;;;;;;7.00;2.67;;;8.00;99.90;;;;;;5098191;28;20302;-59
2023/04/22 04:09:29;;;;;;;2.43;2.23;;;7.90;99.90;;;;;;5098686;28;20056;-59
2023/04/22 04:11:55;;;;;;;3.22;2.90;;;7.90;99.90;;;;;;5099248;28;20042;-59
2023/04/22 04:14:21;;;;;;;6.40;4.85;;;7.90;99.90;;;;;;5098055;28;20075;-59
2023/04/22 04:16:46;;;;;;;7.23;4.07;;;8.00;99.90;;;;;;5098557;28;20063;-59
2023/04/22 04:19:12;;;;;;;46.90;6.95;;;8.00;99.90;;;;;;5098128;28;20137;-57
2023/04/22 04:21:38;;;;;;;37.47;5.93;;;7.90;99.90;;;;;;5099939;28;20508;-59
2023/04/22 04:24:05;;;;;;;5.60;4.15;;;7.80;99.90;;;;;;5095602;28;20039;-58
2023/04/22 04:26:31;;;;;;;25.08;8.80;;;7.70;99.90;;;;;;5098416;28;20043;-58
2023/04/22 04:28:57;;;;;;;12.52;9.85;;;7.60;99.90;;;;;;5102174;28;20032;-59
2023/04/22 04:31:23;;;;;;;16.45;10.60;;;7.60;99.90;;;;;;5101899;28;20413;-59
2023/04/22 04:33:49;;;;;;;;;;;7.60;99.90;;;;;;5100814;28;20462;-59
2023/04/22 04:36:15;;;;;;;19.45;13.05;;;7.60;99.90;;;;;;5101062;28;19923;-59
2023/04/22 04:38:40;;;;;;;13.30;11.90;;;7.60;99.90;;;;;;5103117;28;20048;-59
2023/04/22 04:41:08;;;;;;;13.73;12.17;;;7.60;99.90;;;;;;5099955;28;20049;-57
2023/04/22 04:43:34;;;;;;;17.75;15.07;;;7.60;99.90;;;;;;5104519;28;20093;-59
2023/04/22 04:46:00;;;;;;;16.33;14.63;;;7.60;99.90;;;;;;5099935;28;20044;-58
2023/04/22 04:48:26;;;;;;;17.52;15.45;;;7.70;99.90;;;;;;5101660;28;20032;-58
2023/04/22 04:50:53;;;;;;;17.48;15.63;;;7.70;99.90;;;;;;5100829;28;20036;-59
2023/04/22 04:53:21;;;;;;;18.63;16.75;;;7.70;99.90;;;;;;5102498;28;20084;-58
2023/04/22 04:55:47;;;;;;;20.40;18.02;;;7.80;99.90;;;;;;5099950;28;20032;-59
2023/04/22 04:58:13;;;;;;;24.48;20.20;;;7.90;99.90;;;;;;5101190;28;20507;-59
2023/04/22 05:00:39;;;;;;;24.20;21.58;;;8.00;99.90;;;;;;5099179;28;20212;-57
2023/04/22 05:03:04;;;;;;;23.73;21.23;;;8.10;99.90;;;;;;5100525;28;20104;-59
2023/04/22 05:05:30;;;;;;;22.85;20.52;;;8.20;99.90;;;;;;5101581;28;20665;-59
2023/04/22 05:07:56;;;;;;;23.83;20.90;;;8.30;99.90;;;;;;5102131;28;20400;-59
2023/04/22 05:10:21;;;;;;;22.80;20.40;;;8.30;99.90;;;;;;5099488;28;20043;-59
2023/04/22 05:12:47;;;;;;;26.40;22.23;;;8.40;99.90;;;;;;5103080;28;20032;-59
2023/04/22 05:15:13;;;;;;;24.87;22.27;;;8.50;99.90;;;;;;5099276;28;20071;-58
2023/04/22 05:17:39;;;;;;;32.20;22.10;;;8.50;99.90;;;;;;5101148;28;20311;-59
2023/04/22 05:20:05;;;;;;;24.90;21.77;;;8.60;99.90;;;;;;5098492;28;20288;-59
2023/04/22 05:22:31;;;;;;;23.30;20.73;;;8.60;99.90;;;;;;5100912;28;20044;-59
2023/04/22 05:24:56;;;;;;;24.95;21.33;;;8.70;99.90;;;;;;5103507;28;20032;-58
2023/04/22 05:27:22;;;;;;;25.13;22.33;;;8.70;99.90;;;;;;5100588;28;20024;-58
2023/04/22 05:29:48;;;;;;;25.80;21.87;;;8.80;99.90;;;;;;5097771;28;20278;-59
2023/04/22 05:32:13;;;;;;;26.70;23.80;;;8.80;99.90;;;;;;5100033;28;20445;-58
2023/04/22 05:34:39;;;;;;;32.00;26.27;;;8.90;99.90;;;;;;5103529;28;20364;-59
2023/04/22 05:37:05;;;;;;;32.17;26.48;;;8.90;99.90;;;;;;5101124;28;20046;-59
2023/04/22 05:39:31;;;;;;;29.97;26.37;;;9.00;99.90;;;;;;5095595;28;20044;-58
2023/04/22 05:41:56;;;;;;;35.03;27.40;;;9.10;99.90;;;;;;5099343;28;20335;-58
2023/04/22 05:44:22;;;;;;;35.30;28.10;;;9.10;99.90;;;;;;5099905;28;21049;-59
2023/04/22 05:46:47;;;;;;;30.87;26.70;;;9.20;99.90;;;;;;5099280;28;20115;-59
2023/04/22 05:49:13;;;;;;;32.03;26.77;;;9.20;99.90;;;;;;5100105;28;20036;-59
2023/04/22 05:51:39;;;;;;;31.63;26.75;;;9.30;99.90;;;;;;5098548;28;20051;-58
2023/04/22 05:54:04;;;;;;;31.20;26.35;;;9.30;99.90;;;;;;5100633;28;20040;-58
2023/04/22 05:56:30;;;;;;;29.10;25.97;;;9.40;99.90;;;;;;5100241;28;20040;-59
2023/04/22 05:58:56;;;;;;;30.38;26.38;;;9.40;99.90;;;;;;5098086;28;20301;-59
2023/04/22 06:01:23;;;;;;;31.80;28.35;;;9.50;99.90;;;;;;5098771;28;20039;-58
2023/04/22 06:03:49;;;;;;;30.08;26.88;;;9.50;99.90;;;;;;5101564;28;20452;-60
2023/04/22 06:06:15;;;;;;;30.30;27.08;;;9.60;99.90;;;;;;5100045;28;20114;-59
2023/04/22 06:08:41;;;;;;;31.77;26.98;;;9.60;99.90;;;;;;5097949;28;20040;-58
2023/04/22 06:11:06;;;;;;;29.88;25.77;;;9.60;99.90;;;;;;5099906;28;20482;-58
2023/04/22 06:13:32;;;;;;;29.60;25.05;;;9.70;99.90;;;;;;5095827;28;20039;-59
2023/04/22 06:15:57;;;;;;;27.90;24.87;;;9.70;99.90;;;;;;5082660;28;20122;-60
2023/04/22 06:18:23;;;;;;;28.33;25.33;;;9.80;99.90;;;;;;5099309;28;20472;-59
2023/04/22 06:20:50;;;;;;;29.63;23.83;;;9.80;99.90;;;;;;5100312;27;20046;-59
2023/04/22 06:23:16;;;;;;;28.13;23.75;;;9.80;99.90;;;;;;5097762;28;20043;-58
2023/04/22 06:25:42;;;;;;;26.70;23.80;;;9.90;99.90;;;;;;5100510;28;20033;-59
2023/04/22 06:28:07;;;;;;;26.77;23.98;;;9.90;99.90;;;;;;5096405;28;20081;-59
2023/04/22 06:30:33;;;;;;;30.25;20.45;;;10.00;99.90;;;;;;5096343;28;20542;-57
2023/04/22 06:32:59;;;;;;;21.30;18.83;;;10.10;99.90;;;;;;5098591;28;20036;-54
2023/04/22 06:35:24;;;;;;;30.30;20.88;;;10.10;99.90;;;;;;5099271;28;20036;-57
2023/04/22 06:37:50;;;;;;;25.58;19.95;;;10.10;99.90;;;;;;5098137;28;20039;-56
2023/04/22 06:40:16;;;;;;;23.37;20.00;;;10.20;99.90;;;;;;5099701;28;20060;-57
2023/04/22 06:42:41;;;;;;;22.57;20.17;;;10.30;99.90;;;;;;5098407;28;20652;-53
2023/04/22 06:45:08;;;;;;;23.63;21.13;;;10.40;99.90;;;;;;5100132;28;20850;-56
2023/04/22 06:47:34;;;;;;;22.13;19.92;;;10.40;99.90;;;;;;5099155;28;20036;-56
2023/04/22 06:50:01;;;;;;;24.70;19.92;;;10.40;99.90;;;;;;5097833;28;20261;-55
2023/04/22 06:52:26;;;;;;;21.73;19.55;;;10.40;99.90;;;;;;5097316;28;20523;-60
2023/04/22 06:54:52;;;;;;;23.37;20.20;;;10.50;99.90;;;;;;5099174;28;20139;-59
2023/04/22 06:57:17;;;;;;;23.92;20.85;;;10.50;99.90;;;;;;5099155;28;20047;-59
2023/04/22 06:59:43;;;;;;;23.55;20.00;;;10.60;99.90;;;;;;5099955;28;20043;-60
2023/04/22 07:02:08;;;;;;;24.87;21.80;;;10.60;99.90;;;;;;5096493;28;20070;-59
2023/04/22 07:04:34;;;;;;;23.70;19.57;;;10.70;99.90;;;;;;5099774;28;20273;-59
2023/04/22 07:07:00;;;;;;;21.23;18.95;;;10.80;99.90;;;;;;5099425;28;20063;-59
2023/04/22 07:09:26;;;;;;;23.90;20.00;;;10.80;99.90;;;;;;5094863;28;20062;-59
2023/04/22 07:11:51;;;;;;;21.02;18.90;;;10.90;99.90;;;;;;5101454;28;20071;-60
2023/04/22 07:14:17;;;;;;;23.90;20.23;;;10.90;99.90;;;;;;5097679;28;20032;-59
2023/04/22 07:16:43;;;;;;;21.60;19.40;;;11.00;99.90;;;;;;5099732;28;20281;-60
2023/04/22 07:19:08;;;;;;;21.65;19.45;;;11.00;99.90;;;;;;5096190;28;20131;-58
2023/04/22 07:21:34;;;;;;;18.93;17.03;;;11.10;99.90;;;;;;5101716;28;20038;-59
2023/04/22 07:23:59;;;;;;;21.98;19.67;;;11.10;99.90;;;;;;5100523;28;20285;-59
2023/04/22 07:26:25;;;;;;;24.50;18.93;;;11.20;99.90;;;;;;5098971;28;20119;-59
2023/04/22 07:28:51;;;;;;;23.15;18.30;;;11.30;99.90;;;;;;5097730;28;20035;-60
2023/04/22 07:31:16;;;;;;;19.03;17.13;;;11.40;99.90;;;;;;5097756;28;20076;-59
2023/04/22 07:33:42;;;;;;;21.20;18.80;;;11.50;99.90;;;;;;5097006;28;20416;-59
2023/04/22 07:36:07;;;;;;;18.77;16.65;;;11.50;99.90;;;;;;5098841;28;20050;-58
2023/04/22 07:38:33;;;;;;;16.85;15.05;;;11.60;99.90;;;;;;5099644;28;20401;-59
2023/04/22 07:40:59;;;;;;;18.83;16.83;;;11.70;99.90;;;;;;5097910;28;20032;-59
2023/04/22 07:43:24;;;;;;;18.10;15.57;;;11.80;99.90;;;;;;5100210;28;20028;-60
2023/04/22 07:45:50;;;;;;;15.50;13.88;;;11.90;99.90;;;;;;5098726;28;20043;-59
2023/04/22 07:48:16;;;;;;;20.27;14.38;;;12.00;99.90;;;;;;5098215;28;20111;-59
2023/04/22 07:50:41;;;;;;;19.38;16.23;;;12.10;99.90;;;;;;5095808;28;20028;-59
2023/04/22 07:53:09;;;;;;;16.52;13.57;;;12.20;99.90;;;;;;5097500;28;20035;-56
2023/04/22 07:55:34;;;;;;;17.75;15.07;;;12.30;99.90;;;;;;5098187;28;20044;-53
2023/04/22 07:58:04;;;;;;;18.00;15.27;;;12.40;99.90;;;;;;5098302;28;20499;-56
2023/04/22 08:00:31;;;;;;;16.95;13.15;;;12.50;99.90;;;;;;5097650;28;20083;-57
2023/04/22 08:02:56;;;;;;;15.38;13.73;;;12.70;99.90;;;;;;5100157;28;20039;-54
2023/04/22 08:05:22;;;;;;;14.67;13.17;;;12.80;99.90;;;;;;5101901;28;20032;-55
2023/04/22 08:07:48;;;;;;;14.97;13.30;;;12.90;99.90;;;;;;5102600;28;20288;-55
2023/04/22 08:10:13;;;;;;;16.45;12.55;;;13.10;99.90;;;;;;5100912;28;20043;-53
2023/04/22 08:12:39;;;;;;;16.67;14.13;;;13.30;99.90;;;;;;5104158;28;20816;-55
2023/04/22 08:15:05;;;;;;;16.58;13.68;;;13.40;99.90;;;;;;5092203;28;20051;-60
2023/04/22 08:17:31;;;;;;;15.48;13.10;;;13.50;99.90;;;;;;5090545;28;20044;-59
2023/04/22 08:19:56;;;;;;;14.90;13.45;;;13.60;99.90;;;;;;5089729;28;20043;-60
2023/04/22 08:22:22;;;;;;;15.13;12.00;;;13.70;99.90;;;;;;5102192;28;20572;-60
2023/04/22 08:24:48;;;;;;;14.15;12.65;;;13.80;99.90;;;;;;5102904;28;20289;-60
2023/04/22 08:27:14;;;;;;;16.55;12.48;;;14.00;99.90;;;;;;5103430;28;20472;-60
2023/04/22 08:29:39;;;;;;;10.90;9.90;;;14.10;99.90;;;;;;5100442;28;20040;-60
2023/04/22 08:32:05;;;;;;;12.10;10.90;;;14.20;99.90;;;;;;5102715;28;20080;-60
2023/04/22 08:34:30;;;;;;;10.43;9.45;;;14.30;99.90;;;;;;5103055;28;20028;-59
2023/04/22 08:36:56;;;;;;;12.13;11.00;;;14.50;99.90;;;;;;5098866;28;20047;-60
2023/04/22 08:39:22;;;;;;;13.13;10.60;;;14.60;99.90;;;;;;5100896;28;20101;-60
2023/04/22 08:41:49;;;;;;;10.48;9.43;;;14.70;99.90;;;;;;5101073;28;20036;-60
2023/04/22 08:44:16;;;;;;;11.00;10.00;;;14.90;99.90;;;;;;5099195;28;20047;-60
2023/04/22 08:46:45;;;;;;;10.35;9.45;;;14.90;99.90;;;;;;5096519;28;20500;-60
2023/04/22 08:49:15;;;;;;;9.73;8.93;;;15.10;99.90;;;;;;5093313;28;20067;-60
2023/04/22 08:51:42;;;;;;;10.02;9.02;;;15.20;99.90;;;;;;5098081;28;20484;-60
2023/04/22 08:54:08;;;;;;;10.80;9.70;;;15.40;99.90;;;;;;5098994;28;20040;-60
2023/04/22 08:56:36;;;;;;;10.48;9.10;;;15.50;99.90;;;;;;5101159;28;20027;-60
2023/04/22 08:59:03;;;;;;;10.15;8.93;;;15.70;99.90;;;;;;5097107;28;20036;-56
2023/04/22 09:01:31;;;;;;;9.00;7.47;;;15.80;99.90;;;;;;5102297;28;20036;-55
2023/04/22 09:04:00;;;;;;;7.50;6.80;;;15.90;99.90;;;;;;5098960;27;20043;-59
2023/04/22 09:06:26;;;;;;;8.50;5.93;;;15.90;99.90;;;;;;5097038;28;20040;-60
2023/04/22 09:08:53;;;;;;;6.65;6.05;;;16.00;99.90;;;;;;5099933;28;20043;-60
2023/04/22 09:11:19;;;;;;;7.55;6.85;;;16.00;99.90;;;;;;5098503;28;20036;-59
2023/04/22 09:13:46;;;;;;;8.85;6.97;;;16.00;99.90;;;;;;5098133;28;20455;-58
2023/04/22 09:16:11;;;;;;;6.47;5.80;;;16.00;99.90;;;;;;5102388;28;20460;-60
2023/04/22 09:18:46;;;;;;;6.82;5.88;;;16.10;99.90;;;;;;5099581;28;20142;-54
2023/04/22 09:21:12;;;;;;;7.82;7.13;;;16.20;99.90;;;;;;5098582;28;20469;-60
2023/04/22 09:23:48;;;;;;;7.82;6.47;;;16.30;99.90;;;;;;5101328;28;20035;-60
2023/04/22 09:26:14;;;;;;;8.15;6.55;;;16.30;99.90;;;;;;5100320;28;20105;-60
2023/04/22 09:28:47;;;;;;;;;;;16.40;99.90;;;;;;5098085;28;20501;-60
2023/04/22 09:31:13;;;;;;;7.93;7.05;;;16.50;99.90;;;;;;5099987;28;19916;-60
2023/04/22 09:33:39;;;;;;;7.65;6.97;;;16.50;99.90;;;;;;5098162;28;20051;-60
2023/04/22 09:36:08;;;;;;;7.25;6.68;;;16.60;99.90;;;;;;5100260;28;20027;-60
2023/04/22 09:38:34;;;;;;;6.53;5.93;;;16.70;99.90;;;;;;5096589;28;20074;-60
2023/04/22 09:41:00;;;;;;;7.07;6.38;;;16.80;99.90;;;;;;5098776;28;20375;-60
2023/04/22 09:43:25;;;;;;;7.32;6.47;;;16.80;99.90;;;;;;5100864;28;20042;-59
2023/04/22 09:45:51;;;;;;;6.38;5.78;;;16.80;99.90;;;;;;5100788;28;20040;-60
2023/04/22 09:48:18;;;;;;;7.20;6.47;;;16.90;99.90;;;;;;5101822;28;20465;-61
2023/04/22 09:50:46;;;;;;;6.65;6.05;;;17.00;99.90;;;;;;5097881;28;20382;-59
2023/04/22 09:53:14;;;;;;;5.35;4.85;;;17.00;99.90;;;;;;5098154;28;20032;-60
2023/04/22 09:55:49;;;;;;;5.88;5.38;;;17.10;99.90;;;;;;5096565;28;20585;-59
2023/04/22 09:58:17;;;;;;;6.55;5.30;;;17.10;99.90;;;;;;5105208;28;20047;-60
2023/04/22 10:00:52;;;;;;;5.97;5.47;;;17.20;99.90;;;;;;5111037;27;20739;-60
2023/04/22 10:03:18;;;;;;;11.75;5.53;;;17.20;99.90;;;;;;5093150;28;20032;-60
2023/04/22 10:05:45;;;;;;;5.90;5.47;;;17.20;99.90;;;;;;5104811;28;20027;-55
2023/04/22 10:08:11;;;;;;;;;;;17.20;99.90;;;;;;5096401;28;20052;-60
2023/04/22 10:10:37;;;;;;;6.13;5.30;;;17.20;99.90;;;;;;5109314;28;20284;-60
2023/04/22 10:13:03;;;;;;;;;;;17.30;99.90;;;;;;5093078;28;20114;-60
2023/04/22 10:15:47;;;;;;;6.25;5.63;;;17.40;99.90;;;;;;5094850;28;19920;-61
2023/04/22 10:18:17;;;;;;;8.07;7.20;;;17.50;99.90;;;;;;5090803;28;20040;-60
2023/04/22 10:20:44;;;;;;;7.47;6.78;;;17.50;99.90;;;;;;5098846;28;20039;-61
2023/04/22 10:23:31;;;;;;;8.25;6.95;;;17.60;99.90;;;;;;5111468;28;20053;-60
2023/04/22 10:25:57;;;;;;;11.80;6.43;;;17.60;99.90;;;;;;5111303;28;20508;-60
2023/04/22 10:28:26;;;;;;;6.68;6.07;;;17.70;99.90;;;;;;5110931;28;20063;-60
2023/04/22 10:30:52;;;;;;;7.22;6.05;;;17.80;99.90;;;;;;5110824;28;20040;-60
2023/04/22 10:33:26;;;;;;;8.02;6.00;;;17.80;99.90;;;;;;5102486;28;20580;-60
2023/04/22 10:36:13;;;;;;;8.55;6.60;;;17.80;99.90;;;;;;5107644;28;20036;-60
2023/04/22 10:38:59;;;;;;;;;;;17.90;99.90;;;;;;5097900;28;20036;-60
2023/04/22 10:41:28;;;;;;;7.80;7.10;;;18.00;99.90;;;;;;5101986;28;19924;-60
2023/04/22 10:44:04;;;;;;;7.43;5.88;;;18.10;99.90;;;;;;5097375;28;20047;-60
2023/04/22 10:46:33;;;;;;;7.75;7.07;;;18.20;99.90;;;;;;5105291;28;20084;-60
2023/04/22 10:49:05;;;;;;;9.43;7.15;;;18.30;99.90;;;;;;5109586;28;20084;-60
2023/04/22 10:51:50;;;;;;;10.35;6.70;;;18.40;99.90;;;;;;5110000;28;20040;-60
2023/04/22 10:54:25;;;;;;;6.50;5.60;;;18.50;99.90;;;;;;5091375;28;20055;-60
2023/04/22 10:57:13;;;;;;;7.00;6.30;;;18.60;99.90;;;;;;5092532;28;20449;-59
2023/04/22 10:59:41;;;;;;;6.43;5.82;;;18.70;99.90;;;;;;5109133;28;20475;-60
2023/04/22 11:02:10;;;;;;;8.02;6.32;;;18.60;99.90;;;;;;5104424;28;20051;-60
2023/04/22 11:04:37;;;;;;;6.63;6.10;;;18.70;99.90;;;;;;5098076;28;20381;-60
2023/04/22 11:07:26;;;;;;;5.90;5.50;;;18.70;99.90;;;;;;5109879;28;20042;-60
2023/04/22 11:10:06;;;;;;;7.78;6.32;;;18.70;99.90;;;;;;5101139;28;20028;-61
2023/04/22 11:12:37;;;;;;;6.95;6.35;;;18.70;99.90;;;;;;5090419;28;20040;-61
2023/04/22 11:15:12;;;;;;;9.10;6.55;;;18.80;99.90;;;;;;5091001;28;20032;-60
2023/04/22 11:17:41;;;;;;;7.97;6.53;;;18.80;99.90;;;;;;5088703;28;20114;-61
2023/04/22 11:20:08;;;;;;;9.40;7.20;;;18.90;99.90;;;;;;5091308;28;20450;-60
2023/04/22 11:22:38;;;;;;;8.85;7.32;;;18.90;99.90;;;;;;5097818;28;20486;-61
2023/04/22 11:25:04;;;;;;;7.50;6.80;;;18.90;99.90;;;;;;5110386;28;20069;-60
2023/04/22 11:27:30;;;;;;;11.38;7.82;;;18.90;99.90;;;;;;5097894;28;20063;-60
2023/04/22 11:30:07;;;;;;;7.38;6.47;;;18.90;99.90;;;;;;5089184;28;20071;-60
2023/04/22 11:32:36;;;;;;;9.32;7.70;;;18.90;99.90;;;;;;5090236;28;20050;-60
2023/04/22 11:35:05;;;;;;;8.23;7.40;;;18.80;99.90;;;;;;5089629;28;20567;-60
2023/04/22 11:37:38;;;;;;;7.53;6.82;;;18.80;99.90;;;;;;5089086;28;20093;-59
2023/04/22 11:40:04;;;;;;;7.97;7.28;;;18.70;99.90;;;;;;5091593;28;20028;-60
2023/04/22 11:42:29;;;;;;;7.57;6.80;;;18.70;99.90;;;;;;5089590;28;20036;-60
2023/04/22 11:44:55;;;;;;;6.75;6.07;;;18.70;99.90;;;;;;5095428;28;20639;-59
2023/04/22 11:47:20;;;;;;;6.85;6.28;;;18.70;99.90;;;;;;5110457;28;20063;-60
2023/04/22 11:50:03;;;;;;;10.93;6.22;;;18.70;99.90;;;;;;5107745;28;20043;-60
2023/04/22 11:52:49;;;;;;;8.20;7.40;;;18.70;99.90;;;;;;5098156;28;20036;-60
2023/04/22 11:55:20;;;;;;;6.57;5.90;;;18.90;99.90;;;;;;5109958;28;20121;-61
2023/04/22 11:57:52;;;;;;;7.72;7.00;;;19.00;99.90;;;;;;5094121;28;20044;-60
2023/04/22 12:00:17;;;;;;;8.55;6.15;;;19.10;99.90;;;;;;5089217;28;20097;-60
2023/04/22 12:02:58;;;;;;;7.05;5.68;;;19.20;99.90;;;;;;5089669;28;20040;-61
2023/04/22 12:05:38;;;;;;;7.22;5.88;;;19.30;99.90;;;;;;5098285;28;20036;-60
2023/04/22 12:08:07;;;;;;;5.95;5.45;;;19.30;99.90;;;;;;5102458;28;20035;-61
2023/04/22 12:10:37;;;;;;;6.30;5.70;;;19.20;99.90;;;;;;5089096;28;20047;-60
2023/04/22 12:13:03;;;;;;;6.07;5.55;;;19.30;99.90;;;;;;5098870;28;20032;-61
2023/04/22 12:15:37;;;;;;;5.00;4.60;;;19.40;99.90;;;;;;5110519;28;20392;-60
2023/04/22 12:18:02;;;;;;;7.68;5.95;;;19.50;99.90;;;;;;5108444;28;20043;-60
2023/04/22 12:20:33;;;;;;;6.18;5.57;;;19.50;99.90;;;;;;5109533;28;20435;-60
2023/04/22 12:22:59;;;;;;;10.68;6.57;;;19.60;99.90;;;;;;5110129;28;20047;-60
2023/04/22 12:25:25;;;;;;;9.65;6.75;;;19.60;99.90;;;;;;5098476;28;20408;-60
2023/04/22 12:27:51;;;;;;;7.78;7.18;;;19.70;99.90;;;;;;5104273;28;20085;-61
2023/04/22 12:30:16;;;;;;;8.73;7.43;;;19.70;99.90;;;;;;5109134;28;20051;-61
2023/04/22 12:32:42;;;;;;;9.90;6.10;;;19.70;99.90;;;;;;5109217;28;20067;-60
2023/04/22 12:35:07;;;;;;;7.82;6.18;;;19.80;99.90;;;;;;5109950;28;20078;-61
2023/04/22 12:37:33;;;;;;;7.70;6.78;;;19.80;99.90;;;;;;5092404;28;20073;-61
2023/04/22 12:39:59;;;;;;;7.32;6.63;;;19.80;99.90;;;;;;5088858;28;20047;-61
2023/04/22 12:42:24;;;;;;;;;;;19.70;99.90;;;;;;5089562;28;20086;-54
2023/04/22 12:44:50;;;;;;;7.20;5.97;;;19.60;99.90;;;;;;5089367;28;19919;-60